CYTH

Details ICAO CYTH (YTH)
Name THOMPSON
Region Canada
Timezone America/Winnipeg (UTC-5.0)
Plans Departing 8
Arriving 17
Stats Elevation 729 ft / 222 m (AMSL)
Location 55.801728° -97.859472°
Runways 2
Magnetic Variation 2.875° E
Sunrise 2018-05-25 10:04:37 UTC / 2018-05-25 05:04:37 Local
Sunset 2018-05-26 02:55:04 UTC / 2018-05-25 21:55:04 Local
Advertisement - Login to hide

Runways

ID Width Length Bearing (true) Bearing (mag) Surface Threshold Offset Overrun Length
05 150 ft / 46 m 5,786 ft / 1,764 m 60.93° 58.06° Asphalt 0 ft / 0 m 0 ft / 0 m
14 100 ft / 30 m 2,441 ft / 744 m 150.67° 147.80° Gravel 0 ft / 0 m 0 ft / 0 m
23 150 ft / 46 m 5,786 ft / 1,764 m 240.96° 238.09° Asphalt 0 ft / 0 m 0 ft / 0 m
32 100 ft / 30 m 2,441 ft / 744 m 330.68° 327.81° Gravel 0 ft / 0 m 0 ft / 0 m

Map

Weather


0- 5 10 15 20 25 30 35+ Temperature / ° C

Clouds and Precipitation
Forecast for 2018-05-26 00:00 UTC. Updated 3 hours ago

Ground ~20,000 ft ~40,000 ft Winds

METAR

CYTH 260200Z 06009G16KT 15SM SCT180 BKN210 11/03 A2978 RMK AC3CI3 SLP096

TAF

TAF CYTH 260038Z 2601/2613 06010KT P6SM SCT180 BKN220 FM260300 06010KT P6SM BKN060 TEMPO 2603/2613 P6SM -SHRA BECMG 2606/2608 07006KT RMK NXT FCST BY 260700Z

Frequencies

Recorded 127.65 MHz ATIS
Tower 123.00 MHz INFO
Tower 122.95 MHz INFO
Tower 122.50 MHz RDO
Warning: Do not use this data for real-world aviation or navigation. No guarantee of current accuracy is given.